sensor_id;sensor_type;location;lat;lon;timestamp;pressure;altitude;pressure_sealevel;temperature;humidity
11198;BME280;5655;48.744;9.162;2023-06-22T00:01:10;96195.41;;;23.99;nan
11198;BME280;5655;48.744;9.162;2023-06-22T00:03:35;96190.06;;;23.68;nan
11198;BME280;5655;48.744;9.162;2023-06-22T00:06:01;96194.16;;;23.90;nan
11198;BME280;5655;48.744;9.162;2023-06-22T00:08:26;96197.22;;;23.83;nan
11198;BME280;5655;48.744;9.162;2023-06-22T00:10:51;96176.78;;;23.48;nan
11198;BME280;5655;48.744;9.162;2023-06-22T00:13:17;96192.19;;;23.73;nan
11198;BME280;5655;48.744;9.162;2023-06-22T00:15:43;96193.56;;;23.68;nan
11198;BME280;5655;48.744;9.162;2023-06-22T00:18:09;96188.28;;;23.43;nan
11198;BME280;5655;48.744;9.162;2023-06-22T00:20:35;96197.22;;;23.92;nan
11198;BME280;5655;48.744;9.162;2023-06-22T00:23:05;96207.69;;;23.85;nan
11198;BME280;5655;48.744;9.162;2023-06-22T00:25:40;96194.59;;;23.62;nan
11198;BME280;5655;48.744;9.162;2023-06-22T00:28:06;96205.72;;;23.76;nan
11198;BME280;5655;48.744;9.162;2023-06-22T00:30:32;96202.38;;;23.72;nan
11198;BME280;5655;48.744;9.162;2023-06-22T00:32:59;96203.09;;;23.64;nan
11198;BME280;5655;48.744;9.162;2023-06-22T00:35:25;96197.28;;;23.52;nan
11198;BME280;5655;48.744;9.162;2023-06-22T00:37:57;96180.75;;;23.56;nan
11198;BME280;5655;48.744;9.162;2023-06-22T00:40:29;96179.88;;;23.59;nan
11198;BME280;5655;48.744;9.162;2023-06-22T00:42:55;96185.63;;;23.70;nan
11198;BME280;5655;48.744;9.162;2023-06-22T00:45:24;96181.19;;;23.45;nan
11198;BME280;5655;48.744;9.162;2023-06-22T00:47:55;96184.81;;;23.42;nan
11198;BME280;5655;48.744;9.162;2023-06-22T00:50:29;96194.13;;;23.54;nan
11198;BME280;5655;48.744;9.162;2023-06-22T00:53:00;96199.94;;;23.34;nan
11198;BME280;5655;48.744;9.162;2023-06-22T00:55:26;96204.75;;;23.61;nan
11198;BME280;5655;48.744;9.162;2023-06-22T00:57:52;96199.81;;;23.38;nan
11198;BME280;5655;48.744;9.162;2023-06-22T01:00:23;96203.81;;;23.46;nan
11198;BME280;5655;48.744;9.162;2023-06-22T01:02:51;96223.59;;;23.59;nan
11198;BME280;5655;48.744;9.162;2023-06-22T01:05:19;96217.53;;;23.73;nan
11198;BME280;5655;48.744;9.162;2023-06-22T01:07:56;96245.09;;;23.48;nan
11198;BME280;5655;48.744;9.162;2023-06-22T01:10:41;96250.19;;;23.37;nan
11198;BME280;5655;48.744;9.162;2023-06-22T01:13:16;96238.63;;;23.33;nan
11198;BME280;5655;48.744;9.162;2023-06-22T01:15:51;96231.34;;;23.30;nan
11198;BME280;5655;48.744;9.162;2023-06-22T01:18:19;96224.00;;;23.48;nan
11198;BME280;5655;48.744;9.162;2023-06-22T01:20:46;96206.13;;;23.26;nan
11198;BME280;5655;48.744;9.162;2023-06-22T01:23:31;96212.22;;;23.30;nan
11198;BME280;5655;48.744;9.162;2023-06-22T01:29:04;96204.94;;;23.36;nan
11198;BME280;5655;48.744;9.162;2023-06-22T01:31:31;96187.44;;;23.15;nan
11198;BME280;5655;48.744;9.162;2023-06-22T01:34:00;96208.88;;;23.35;nan
11198;BME280;5655;48.744;9.162;2023-06-22T01:36:26;96212.09;;;23.33;nan
11198;BME280;5655;48.744;9.162;2023-06-22T01:38:52;96209.16;;;23.28;nan
11198;BME280;5655;48.744;9.162;2023-06-22T01:41:19;96195.44;;;23.10;nan
11198;BME280;5655;48.744;9.162;2023-06-22T01:44:17;96188.81;;;23.20;nan
11198;BME280;5655;48.744;9.162;2023-06-22T01:46:47;96205.56;;;23.40;nan
11198;BME280;5655;48.744;9.162;2023-06-22T01:49:14;96205.91;;;23.42;nan
11198;BME280;5655;48.744;9.162;2023-06-22T01:51:40;96204.50;;;23.37;nan
11198;BME280;5655;48.744;9.162;2023-06-22T01:54:06;96211.31;;;23.33;nan
11198;BME280;5655;48.744;9.162;2023-06-22T01:56:32;96214.50;;;23.31;nan
11198;BME280;5655;48.744;9.162;2023-06-22T02:01:32;96217.22;;;23.62;nan
11198;BME280;5655;48.744;9.162;2023-06-22T02:04:44;96221.16;;;23.70;nan
11198;BME280;5655;48.744;9.162;2023-06-22T02:07:14;96223.00;;;23.33;nan
11198;BME280;5655;48.744;9.162;2023-06-22T02:09:44;96216.06;;;23.11;nan
11198;BME280;5655;48.744;9.162;2023-06-22T02:12:17;96212.41;;;23.04;nan
11198;BME280;5655;48.744;9.162;2023-06-22T02:14:44;96217.22;;;23.00;nan
11198;BME280;5655;48.744;9.162;2023-06-22T02:17:10;96221.72;;;22.85;nan
11198;BME280;5655;48.744;9.162;2023-06-22T02:19:41;96216.59;;;22.96;nan
11198;BME280;5655;48.744;9.162;2023-06-22T02:22:06;96210.66;;;22.67;nan
11198;BME280;5655;48.744;9.162;2023-06-22T02:24:32;96201.25;;;22.68;nan
11198;BME280;5655;48.744;9.162;2023-06-22T02:26:59;96207.75;;;22.83;nan
11198;BME280;5655;48.744;9.162;2023-06-22T02:29:25;96204.28;;;22.92;nan
11198;BME280;5655;48.744;9.162;2023-06-22T02:31:50;96197.59;;;22.84;nan
11198;BME280;5655;48.744;9.162;2023-06-22T02:34:16;96187.94;;;22.70;nan
11198;BME280;5655;48.744;9.162;2023-06-22T02:36:47;96200.56;;;22.98;nan
11198;BME280;5655;48.744;9.162;2023-06-22T02:39:24;96201.28;;;22.90;nan
11198;BME280;5655;48.744;9.162;2023-06-22T02:41:54;96197.22;;;22.73;nan
11198;BME280;5655;48.744;9.162;2023-06-22T02:44:20;96191.97;;;22.66;nan
11198;BME280;5655;48.744;9.162;2023-06-22T02:46:46;96183.00;;;22.56;nan
11198;BME280;5655;48.744;9.162;2023-06-22T02:49:11;96169.81;;;22.54;nan
11198;BME280;5655;48.744;9.162;2023-06-22T02:51:39;96170.00;;;22.60;nan
11198;BME280;5655;48.744;9.162;2023-06-22T02:54:05;96173.97;;;22.68;nan
11198;BME280;5655;48.744;9.162;2023-06-22T02:56:31;96175.75;;;22.84;nan
11198;BME280;5655;48.744;9.162;2023-06-22T02:58:56;96174.22;;;22.83;nan
11198;BME280;5655;48.744;9.162;2023-06-22T03:01:26;96167.84;;;22.55;nan
11198;BME280;5655;48.744;9.162;2023-06-22T03:03:53;96153.00;;;22.56;nan
11198;BME280;5655;48.744;9.162;2023-06-22T03:06:18;96158.38;;;22.69;nan
11198;BME280;5655;48.744;9.162;2023-06-22T03:08:48;96162.25;;;22.80;nan
11198;BME280;5655;48.744;9.162;2023-06-22T03:11:13;96169.53;;;22.83;nan
11198;BME280;5655;48.744;9.162;2023-06-22T03:13:38;96166.56;;;22.90;nan
11198;BME280;5655;48.744;9.162;2023-06-22T03:16:04;96162.97;;;22.72;nan
11198;BME280;5655;48.744;9.162;2023-06-22T03:18:29;96163.19;;;22.65;nan
11198;BME280;5655;48.744;9.162;2023-06-22T03:20:54;96156.34;;;22.60;nan
11198;BME280;5655;48.744;9.162;2023-06-22T03:23:20;96154.88;;;22.68;nan
11198;BME280;5655;48.744;9.162;2023-06-22T03:25:45;96156.28;;;22.73;nan
11198;BME280;5655;48.744;9.162;2023-06-22T03:28:10;96156.91;;;22.77;nan
11198;BME280;5655;48.744;9.162;2023-06-22T03:30:36;96159.28;;;22.96;nan
11198;BME280;5655;48.744;9.162;2023-06-22T03:33:01;96156.84;;;22.89;nan
11198;BME280;5655;48.744;9.162;2023-06-22T03:35:27;96160.13;;;22.84;nan
11198;BME280;5655;48.744;9.162;2023-06-22T03:37:52;96163.06;;;22.68;nan
11198;BME280;5655;48.744;9.162;2023-06-22T03:40:17;96161.91;;;22.78;nan
11198;BME280;5655;48.744;9.162;2023-06-22T03:42:43;96158.44;;;22.78;nan
11198;BME280;5655;48.744;9.162;2023-06-22T03:45:09;96149.81;;;22.57;nan
11198;BME280;5655;48.744;9.162;2023-06-22T03:47:34;96148.88;;;22.73;nan
11198;BME280;5655;48.744;9.162;2023-06-22T03:50:00;96153.78;;;22.87;nan
11198;BME280;5655;48.744;9.162;2023-06-22T03:52:25;96153.78;;;22.87;nan
11198;BME280;5655;48.744;9.162;2023-06-22T03:54:50;96147.56;;;22.87;nan
11198;BME280;5655;48.744;9.162;2023-06-22T03:57:16;96148.13;;;22.73;nan
11198;BME280;5655;48.744;9.162;2023-06-22T03:59:41;96133.28;;;22.52;nan
11198;BME280;5655;48.744;9.162;2023-06-22T04:02:06;96141.25;;;22.46;nan
11198;BME280;5655;48.744;9.162;2023-06-22T04:04:32;96137.44;;;22.44;nan
11198;BME280;5655;48.744;9.162;2023-06-22T04:06:58;96143.16;;;22.58;nan
11198;BME280;5655;48.744;9.162;2023-06-22T04:09:24;96147.34;;;22.72;nan
11198;BME280;5655;48.744;9.162;2023-06-22T04:11:49;96145.53;;;22.69;nan
11198;BME280;5655;48.744;9.162;2023-06-22T04:14:14;96144.03;;;22.77;nan
11198;BME280;5655;48.744;9.162;2023-06-22T04:16:40;96133.03;;;22.37;nan
11198;BME280;5655;48.744;9.162;2023-06-22T04:19:05;96135.94;;;22.43;nan
11198;BME280;5655;48.744;9.162;2023-06-22T04:21:31;96131.09;;;22.69;nan
11198;BME280;5655;48.744;9.162;2023-06-22T04:23:56;96137.06;;;22.76;nan
11198;BME280;5655;48.744;9.162;2023-06-22T04:26:22;96133.28;;;22.83;nan
11198;BME280;5655;48.744;9.162;2023-06-22T04:28:47;96138.03;;;22.91;nan
11198;BME280;5655;48.744;9.162;2023-06-22T04:31:17;96144.03;;;22.77;nan
11198;BME280;5655;48.744;9.162;2023-06-22T04:33:43;96143.75;;;22.84;nan
11198;BME280;5655;48.744;9.162;2023-06-22T04:36:09;96130.25;;;22.81;nan
11198;BME280;5655;48.744;9.162;2023-06-22T04:38:38;96128.91;;;22.85;nan
11198;BME280;5655;48.744;9.162;2023-06-22T04:41:03;96135.94;;;23.04;nan
11198;BME280;5655;48.744;9.162;2023-06-22T04:43:29;96132.03;;;23.05;nan
11198;BME280;5655;48.744;9.162;2023-06-22T04:45:56;96130.16;;;22.93;nan
11198;BME280;5655;48.744;9.162;2023-06-22T04:48:21;96125.63;;;22.99;nan
11198;BME280;5655;48.744;9.162;2023-06-22T04:50:47;96119.56;;;23.04;nan
11198;BME280;5655;48.744;9.162;2023-06-22T04:53:12;96116.69;;;22.99;nan
11198;BME280;5655;48.744;9.162;2023-06-22T04:55:38;96104.72;;;23.05;nan
11198;BME280;5655;48.744;9.162;2023-06-22T04:58:10;96108.06;;;23.10;nan
11198;BME280;5655;48.744;9.162;2023-06-22T05:00:38;96110.53;;;23.17;nan
11198;BME280;5655;48.744;9.162;2023-06-22T05:03:03;96116.00;;;23.26;nan
11198;BME280;5655;48.744;9.162;2023-06-22T05:05:31;96117.50;;;23.27;nan
11198;BME280;5655;48.744;9.162;2023-06-22T05:07:57;96116.59;;;23.21;nan
11198;BME280;5655;48.744;9.162;2023-06-22T05:10:25;96114.09;;;23.04;nan
11198;BME280;5655;48.744;9.162;2023-06-22T05:12:51;96113.56;;;23.19;nan
11198;BME280;5655;48.744;9.162;2023-06-22T05:15:16;96111.75;;;23.25;nan
11198;BME280;5655;48.744;9.162;2023-06-22T05:17:44;96107.88;;;23.04;nan
11198;BME280;5655;48.744;9.162;2023-06-22T05:20:11;96099.34;;;23.33;nan
11198;BME280;5655;48.744;9.162;2023-06-22T05:22:36;96113.38;;;23.62;nan
11198;BME280;5655;48.744;9.162;2023-06-22T05:25:02;96110.63;;;23.53;nan
11198;BME280;5655;48.744;9.162;2023-06-22T05:27:27;96109.09;;;23.52;nan
11198;BME280;5655;48.744;9.162;2023-06-22T05:29:53;96107.31;;;23.76;nan
11198;BME280;5655;48.744;9.162;2023-06-22T05:32:18;96110.34;;;23.87;nan
11198;BME280;5655;48.744;9.162;2023-06-22T05:34:44;96101.22;;;24.00;nan
11198;BME280;5655;48.744;9.162;2023-06-22T05:37:09;96110.03;;;24.04;nan
11198;BME280;5655;48.744;9.162;2023-06-22T05:39:35;96111.25;;;24.12;nan
11198;BME280;5655;48.744;9.162;2023-06-22T05:42:06;96116.84;;;24.35;nan
11198;BME280;5655;48.744;9.162;2023-06-22T05:44:32;96109.28;;;24.03;nan
11198;BME280;5655;48.744;9.162;2023-06-22T05:46:58;96113.78;;;24.42;nan
11198;BME280;5655;48.744;9.162;2023-06-22T05:49:24;96114.28;;;24.32;nan
11198;BME280;5655;48.744;9.162;2023-06-22T05:51:54;96118.84;;;24.17;nan
11198;BME280;5655;48.744;9.162;2023-06-22T05:54:20;96122.13;;;24.57;nan
11198;BME280;5655;48.744;9.162;2023-06-22T05:56:45;96121.66;;;24.68;nan
11198;BME280;5655;48.744;9.162;2023-06-22T05:59:10;96118.53;;;24.06;nan
11198;BME280;5655;48.744;9.162;2023-06-22T06:01:36;96120.91;;;24.58;nan
11198;BME280;5655;48.744;9.162;2023-06-22T06:04:04;96120.25;;;24.72;nan
11198;BME280;5655;48.744;9.162;2023-06-22T06:06:30;96115.22;;;24.29;nan
11198;BME280;5655;48.744;9.162;2023-06-22T06:08:55;96109.38;;;24.54;nan
11198;BME280;5655;48.744;9.162;2023-06-22T06:11:21;96109.03;;;24.61;nan
11198;BME280;5655;48.744;9.162;2023-06-22T06:13:47;96105.72;;;24.48;nan
11198;BME280;5655;48.744;9.162;2023-06-22T06:16:12;96110.72;;;24.59;nan
11198;BME280;5655;48.744;9.162;2023-06-22T06:18:38;96111.16;;;24.66;nan
11198;BME280;5655;48.744;9.162;2023-06-22T06:21:03;96108.44;;;24.57;nan
11198;BME280;5655;48.744;9.162;2023-06-22T06:23:28;96105.94;;;24.77;nan
11198;BME280;5655;48.744;9.162;2023-06-22T06:25:53;96104.44;;;24.76;nan
11198;BME280;5655;48.744;9.162;2023-06-22T06:28:19;96109.63;;;24.65;nan
11198;BME280;5655;48.744;9.162;2023-06-22T06:30:44;96120.72;;;25.13;nan
11198;BME280;5655;48.744;9.162;2023-06-22T06:33:12;96107.63;;;25.17;nan
11198;BME280;5655;48.744;9.162;2023-06-22T06:35:37;96115.22;;;25.22;nan
11198;BME280;5655;48.744;9.162;2023-06-22T06:38:03;96121.75;;;24.92;nan
11198;BME280;5655;48.744;9.162;2023-06-22T06:40:29;96114.75;;;24.91;nan
11198;BME280;5655;48.744;9.162;2023-06-22T06:42:54;96118.75;;;25.37;nan
11198;BME280;5655;48.744;9.162;2023-06-22T06:45:21;96122.34;;;25.52;nan
11198;BME280;5655;48.744;9.162;2023-06-22T06:47:51;96126.28;;;25.84;nan
11198;BME280;5655;48.744;9.162;2023-06-22T06:50:17;96129.41;;;25.92;nan
11198;BME280;5655;48.744;9.162;2023-06-22T06:52:43;96127.31;;;25.87;nan
11198;BME280;5655;48.744;9.162;2023-06-22T06:55:09;96119.97;;;25.93;nan
11198;BME280;5655;48.744;9.162;2023-06-22T06:57:41;96120.88;;;26.28;nan
11198;BME280;5655;48.744;9.162;2023-06-22T07:00:08;96126.09;;;26.41;nan
11198;BME280;5655;48.744;9.162;2023-06-22T07:02:41;96126.47;;;26.34;nan
11198;BME280;5655;48.744;9.162;2023-06-22T07:05:08;96131.19;;;25.95;nan
11198;BME280;5655;48.744;9.162;2023-06-22T07:07:34;96127.81;;;26.53;nan
11198;BME280;5655;48.744;9.162;2023-06-22T07:09:59;96117.00;;;26.79;nan
11198;BME280;5655;48.744;9.162;2023-06-22T07:12:25;96117.53;;;27.12;nan
11198;BME280;5655;48.744;9.162;2023-06-22T07:14:51;96106.50;;;26.77;nan
11198;BME280;5655;48.744;9.162;2023-06-22T07:17:17;96118.72;;;26.91;nan
11198;BME280;5655;48.744;9.162;2023-06-22T07:19:42;96111.16;;;26.86;nan
11198;BME280;5655;48.744;9.162;2023-06-22T07:22:08;96105.53;;;26.95;nan
11198;BME280;5655;48.744;9.162;2023-06-22T07:24:33;96098.19;;;27.21;nan
11198;BME280;5655;48.744;9.162;2023-06-22T07:26:59;96090.47;;;26.76;nan
11198;BME280;5655;48.744;9.162;2023-06-22T07:29:24;96092.16;;;27.37;nan
11198;BME280;5655;48.744;9.162;2023-06-22T07:31:50;96092.47;;;27.04;nan
11198;BME280;5655;48.744;9.162;2023-06-22T07:34:21;96081.41;;;26.70;nan
11198;BME280;5655;48.744;9.162;2023-06-22T07:36:47;96082.66;;;27.18;nan
11198;BME280;5655;48.744;9.162;2023-06-22T07:39:12;96080.25;;;27.26;nan
11198;BME280;5655;48.744;9.162;2023-06-22T07:41:39;96076.63;;;27.34;nan
11198;BME280;5655;48.744;9.162;2023-06-22T07:44:05;96066.03;;;27.27;nan
11198;BME280;5655;48.744;9.162;2023-06-22T07:46:31;96066.56;;;27.31;nan
11198;BME280;5655;48.744;9.162;2023-06-22T07:48:57;96064.53;;;27.46;nan
11198;BME280;5655;48.744;9.162;2023-06-22T07:51:22;96049.94;;;27.40;nan
11198;BME280;5655;48.744;9.162;2023-06-22T07:53:48;96045.97;;;27.41;nan
11198;BME280;5655;48.744;9.162;2023-06-22T07:56:14;96052.00;;;27.45;nan
11198;BME280;5655;48.744;9.162;2023-06-22T07:58:44;96053.00;;;27.83;nan
11198;BME280;5655;48.744;9.162;2023-06-22T08:01:10;96052.19;;;27.57;nan
11198;BME280;5655;48.744;9.162;2023-06-22T08:03:36;96059.53;;;27.65;nan
11198;BME280;5655;48.744;9.162;2023-06-22T08:06:01;96055.16;;;27.99;nan
11198;BME280;5655;48.744;9.162;2023-06-22T08:08:27;96064.25;;;28.31;nan
11198;BME280;5655;48.744;9.162;2023-06-22T08:10:52;96090.81;;;28.34;nan
11198;BME280;5655;48.744;9.162;2023-06-22T08:13:17;96087.50;;;28.56;nan
11198;BME280;5655;48.744;9.162;2023-06-22T08:18:35;96098.78;;;28.58;nan
11198;BME280;5655;48.744;9.162;2023-06-22T08:21:01;96090.91;;;28.45;nan
11198;BME280;5655;48.744;9.162;2023-06-22T08:23:26;96093.94;;;28.47;nan
11198;BME280;5655;48.744;9.162;2023-06-22T08:25:52;96107.06;;;28.89;nan
11198;BME280;5655;48.744;9.162;2023-06-22T08:28:17;96108.88;;;28.66;nan
11198;BME280;5655;48.744;9.162;2023-06-22T08:30:43;96115.53;;;28.80;nan
11198;BME280;5655;48.744;9.162;2023-06-22T08:33:08;96115.06;;;28.87;nan
11198;BME280;5655;48.744;9.162;2023-06-22T08:35:33;96122.63;;;28.92;nan
11198;BME280;5655;48.744;9.162;2023-06-22T08:37:59;96132.75;;;29.06;nan
11198;BME280;5655;48.744;9.162;2023-06-22T08:40:25;96125.00;;;29.10;nan
11198;BME280;5655;48.744;9.162;2023-06-22T08:42:50;96127.59;;;28.88;nan
11198;BME280;5655;48.744;9.162;2023-06-22T08:45:16;96119.13;;;28.66;nan
11198;BME280;5655;48.744;9.162;2023-06-22T08:47:41;96118.88;;;28.95;nan
11198;BME280;5655;48.744;9.162;2023-06-22T08:50:08;96110.78;;;29.17;nan
11198;BME280;5655;48.744;9.162;2023-06-22T08:52:34;96112.41;;;28.98;nan
11198;BME280;5655;48.744;9.162;2023-06-22T08:55:00;96102.69;;;29.08;nan
11198;BME280;5655;48.744;9.162;2023-06-22T08:57:25;96109.56;;;29.24;nan
11198;BME280;5655;48.744;9.162;2023-06-22T08:59:51;96104.28;;;29.20;nan
11198;BME280;5655;48.744;9.162;2023-06-22T09:02:19;96115.00;;;29.50;nan
11198;BME280;5655;48.744;9.162;2023-06-22T09:04:46;96119.81;;;29.55;nan
11198;BME280;5655;48.744;9.162;2023-06-22T09:07:11;96114.84;;;29.27;nan
11198;BME280;5655;48.744;9.162;2023-06-22T09:09:36;96096.22;;;29.54;nan
11198;BME280;5655;48.744;9.162;2023-06-22T09:12:02;96096.78;;;29.26;nan
11198;BME280;5655;48.744;9.162;2023-06-22T09:14:27;96096.94;;;29.49;nan
11198;BME280;5655;48.744;9.162;2023-06-22T09:16:53;96104.13;;;29.83;nan
11198;BME280;5655;48.744;9.162;2023-06-22T09:19:18;96118.25;;;29.48;nan
11198;BME280;5655;48.744;9.162;2023-06-22T09:21:44;96119.66;;;29.86;nan
11198;BME280;5655;48.744;9.162;2023-06-22T09:24:09;96111.13;;;29.79;nan
11198;BME280;5655;48.744;9.162;2023-06-22T09:26:34;96101.47;;;29.52;nan
11198;BME280;5655;48.744;9.162;2023-06-22T09:29:00;96093.31;;;29.80;nan
11198;BME280;5655;48.744;9.162;2023-06-22T09:31:25;96099.97;;;29.51;nan
11198;BME280;5655;48.744;9.162;2023-06-22T09:33:54;96104.53;;;29.65;nan
11198;BME280;5655;48.744;9.162;2023-06-22T09:36:23;96082.78;;;29.84;nan
11198;BME280;5655;48.744;9.162;2023-06-22T09:38:49;96087.28;;;29.75;nan
11198;BME280;5655;48.744;9.162;2023-06-22T09:41:20;96077.88;;;30.10;nan
11198;BME280;5655;48.744;9.162;2023-06-22T09:43:45;96080.47;;;30.58;nan
11198;BME280;5655;48.744;9.162;2023-06-22T09:46:10;96077.94;;;30.77;nan
11198;BME280;5655;48.744;9.162;2023-06-22T09:48:36;96084.19;;;30.44;nan
11198;BME280;5655;48.744;9.162;2023-06-22T09:51:01;96072.38;;;30.15;nan
11198;BME280;5655;48.744;9.162;2023-06-22T09:53:26;96068.19;;;30.59;nan
11198;BME280;5655;48.744;9.162;2023-06-22T09:55:52;96071.41;;;30.96;nan
11198;BME280;5655;48.744;9.162;2023-06-22T09:58:18;96068.41;;;31.00;nan
11198;BME280;5655;48.744;9.162;2023-06-22T10:00:43;96056.22;;;31.42;nan
11198;BME280;5655;48.744;9.162;2023-06-22T10:03:08;96056.50;;;31.44;nan
11198;BME280;5655;48.744;9.162;2023-06-22T10:05:34;96047.28;;;31.19;nan
11198;BME280;5655;48.744;9.162;2023-06-22T10:07:59;96042.47;;;31.20;nan
11198;BME280;5655;48.744;9.162;2023-06-22T10:10:24;96040.94;;;31.24;nan
11198;BME280;5655;48.744;9.162;2023-06-22T10:12:57;96031.41;;;31.25;nan
11198;BME280;5655;48.744;9.162;2023-06-22T10:15:27;96023.41;;;30.99;nan
11198;BME280;5655;48.744;9.162;2023-06-22T10:17:53;96025.44;;;30.93;nan
11198;BME280;5655;48.744;9.162;2023-06-22T10:20:18;96027.69;;;31.00;nan
11198;BME280;5655;48.744;9.162;2023-06-22T10:22:44;96016.53;;;31.28;nan
11198;BME280;5655;48.744;9.162;2023-06-22T10:25:12;96027.78;;;31.58;nan
11198;BME280;5655;48.744;9.162;2023-06-22T10:27:38;96022.75;;;31.51;nan
11198;BME280;5655;48.744;9.162;2023-06-22T10:30:07;96022.69;;;31.73;nan
11198;BME280;5655;48.744;9.162;2023-06-22T10:32:34;96016.19;;;31.65;nan
11198;BME280;5655;48.744;9.162;2023-06-22T10:35:00;96017.69;;;32.13;nan
11198;BME280;5655;48.744;9.162;2023-06-22T10:37:25;96010.47;;;32.34;nan
11198;BME280;5655;48.744;9.162;2023-06-22T10:39:50;96008.63;;;32.07;nan
11198;BME280;5655;48.744;9.162;2023-06-22T10:42:16;96012.22;;;32.37;nan
11198;BME280;5655;48.744;9.162;2023-06-22T10:44:42;95985.31;;;31.91;nan
11198;BME280;5655;48.744;9.162;2023-06-22T10:47:09;95992.41;;;31.86;nan
11198;BME280;5655;48.744;9.162;2023-06-22T10:49:34;96006.19;;;32.33;nan
11198;BME280;5655;48.744;9.162;2023-06-22T10:52:01;96013.25;;;31.93;nan
11198;BME280;5655;48.744;9.162;2023-06-22T10:54:26;96010.97;;;32.32;nan
11198;BME280;5655;48.744;9.162;2023-06-22T10:56:52;96011.25;;;32.29;nan
11198;BME280;5655;48.744;9.162;2023-06-22T10:59:18;96001.03;;;32.48;nan
11198;BME280;5655;48.744;9.162;2023-06-22T11:01:43;96002.72;;;32.27;nan
11198;BME280;5655;48.744;9.162;2023-06-22T11:04:08;95999.84;;;32.03;nan
11198;BME280;5655;48.744;9.162;2023-06-22T11:06:34;96000.56;;;32.44;nan
11198;BME280;5655;48.744;9.162;2023-06-22T11:08:59;96003.00;;;31.82;nan
11198;BME280;5655;48.744;9.162;2023-06-22T11:11:27;96000.59;;;32.09;nan
11198;BME280;5655;48.744;9.162;2023-06-22T11:13:52;96000.63;;;31.97;nan
11198;BME280;5655;48.744;9.162;2023-06-22T11:16:18;96000.13;;;31.99;nan
11198;BME280;5655;48.744;9.162;2023-06-22T11:18:43;96010.59;;;32.17;nan
11198;BME280;5655;48.744;9.162;2023-06-22T11:21:08;96010.81;;;32.19;nan
11198;BME280;5655;48.744;9.162;2023-06-22T11:23:34;96009.38;;;32.07;nan
11198;BME280;5655;48.744;9.162;2023-06-22T11:25:59;95992.97;;;32.15;nan
11198;BME280;5655;48.744;9.162;2023-06-22T11:28:25;95995.88;;;32.33;nan
11198;BME280;5655;48.744;9.162;2023-06-22T11:30:51;96003.09;;;32.07;nan
11198;BME280;5655;48.744;9.162;2023-06-22T11:33:16;96005.56;;;32.16;nan
11198;BME280;5655;48.744;9.162;2023-06-22T11:35:41;96004.38;;;32.06;nan
11198;BME280;5655;48.744;9.162;2023-06-22T11:38:07;95982.72;;;32.10;nan
11198;BME280;5655;48.744;9.162;2023-06-22T11:40:32;95982.25;;;32.35;nan
11198;BME280;5655;48.744;9.162;2023-06-22T11:42:58;95987.03;;;32.70;nan
11198;BME280;5655;48.744;9.162;2023-06-22T11:45:23;95981.56;;;32.83;nan
11198;BME280;5655;48.744;9.162;2023-06-22T11:47:48;95970.16;;;33.17;nan
11198;BME280;5655;48.744;9.162;2023-06-22T11:50:14;95974.41;;;32.94;nan
11198;BME280;5655;48.744;9.162;2023-06-22T11:52:39;95974.25;;;32.86;nan
11198;BME280;5655;48.744;9.162;2023-06-22T11:55:05;95990.59;;;32.90;nan
11198;BME280;5655;48.744;9.162;2023-06-22T11:57:39;95996.94;;;32.84;nan
11198;BME280;5655;48.744;9.162;2023-06-22T12:00:16;96000.56;;;32.44;nan
11198;BME280;5655;48.744;9.162;2023-06-22T12:02:43;95984.72;;;32.74;nan
11198;BME280;5655;48.744;9.162;2023-06-22T12:05:10;96006.53;;;32.83;nan
11198;BME280;5655;48.744;9.162;2023-06-22T12:07:35;96003.28;;;32.79;nan
11198;BME280;5655;48.744;9.162;2023-06-22T12:10:01;96005.53;;;33.05;nan
11198;BME280;5655;48.744;9.162;2023-06-22T12:12:27;96007.06;;;32.82;nan
11198;BME280;5655;48.744;9.162;2023-06-22T12:14:52;95984.97;;;32.71;nan
11198;BME280;5655;48.744;9.162;2023-06-22T12:17:17;95977.38;;;32.47;nan
11198;BME280;5655;48.744;9.162;2023-06-22T12:19:43;95969.44;;;32.62;nan
11198;BME280;5655;48.744;9.162;2023-06-22T12:22:08;95991.28;;;32.71;nan
11198;BME280;5655;48.744;9.162;2023-06-22T12:24:33;95977.78;;;32.57;nan
11198;BME280;5655;48.744;9.162;2023-06-22T12:26:59;95984.78;;;32.63;nan
11198;BME280;5655;48.744;9.162;2023-06-22T12:29:24;95989.78;;;32.70;nan
11198;BME280;5655;48.744;9.162;2023-06-22T12:31:49;95996.16;;;32.60;nan
11198;BME280;5655;48.744;9.162;2023-06-22T12:34:15;95990.97;;;32.45;nan
11198;BME280;5655;48.744;9.162;2023-06-22T12:36:40;96004.75;;;32.62;nan
11198;BME280;5655;48.744;9.162;2023-06-22T12:39:06;95997.41;;;32.64;nan
11198;BME280;5655;48.744;9.162;2023-06-22T12:41:31;96002.63;;;32.38;nan
11198;BME280;5655;48.744;9.162;2023-06-22T12:43:56;96011.81;;;32.57;nan
11198;BME280;5655;48.744;9.162;2023-06-22T12:46:22;96029.09;;;32.69;nan
11198;BME280;5655;48.744;9.162;2023-06-22T12:48:47;96038.97;;;32.64;nan
11198;BME280;5655;48.744;9.162;2023-06-22T12:51:20;96039.75;;;32.59;nan
11198;BME280;5655;48.744;9.162;2023-06-22T12:53:46;96048.00;;;32.35;nan
11198;BME280;5655;48.744;9.162;2023-06-22T12:56:11;96039.22;;;32.31;nan
11198;BME280;5655;48.744;9.162;2023-06-22T12:58:36;96040.22;;;32.28;nan
11198;BME280;5655;48.744;9.162;2023-06-22T13:01:02;96037.22;;;32.31;nan
11198;BME280;5655;48.744;9.162;2023-06-22T13:03:27;96033.38;;;32.40;nan
11198;BME280;5655;48.744;9.162;2023-06-22T13:05:54;96023.22;;;32.07;nan
11198;BME280;5655;48.744;9.162;2023-06-22T13:08:19;96019.22;;;32.03;nan
11198;BME280;5655;48.744;9.162;2023-06-22T13:10:45;96016.72;;;32.05;nan
11198;BME280;5655;48.744;9.162;2023-06-22T13:13:10;96018.47;;;31.61;nan
11198;BME280;5655;48.744;9.162;2023-06-22T13:15:35;96009.75;;;31.92;nan
11198;BME280;5655;48.744;9.162;2023-06-22T13:18:01;96000.78;;;32.16;nan
11198;BME280;5655;48.744;9.162;2023-06-22T13:20:26;95996.78;;;32.12;nan
11198;BME280;5655;48.744;9.162;2023-06-22T13:22:53;95995.75;;;32.15;nan
11198;BME280;5655;48.744;9.162;2023-06-22T13:25:19;95986.59;;;32.31;nan
11198;BME280;5655;48.744;9.162;2023-06-22T13:27:47;95977.91;;;32.10;nan
11198;BME280;5655;48.744;9.162;2023-06-22T13:30:12;95978.41;;;32.44;nan
11198;BME280;5655;48.744;9.162;2023-06-22T13:32:38;95974.41;;;32.39;nan
11198;BME280;5655;48.744;9.162;2023-06-22T13:35:07;95975.41;;;32.42;nan
11198;BME280;5655;48.744;9.162;2023-06-22T13:37:33;95976.28;;;32.56;nan